sensor_id;sensor_type;location;lat;lon;timestamp;temperature;humidity
18575;DHT22;9417;16.484;102.872;2024-02-28T00:00:46;23.00;86.60
18575;DHT22;9417;16.484;102.872;2024-02-28T00:10:44;23.10;86.20
18575;DHT22;9417;16.484;102.872;2024-02-28T00:40:38;23.90;83.70
18575;DHT22;9417;16.484;102.872;2024-02-28T00:49:54;24.10;82.10
18575;DHT22;9417;16.484;102.872;2024-02-28T00:59:08;24.50;79.80
18575;DHT22;9417;16.484;102.872;2024-02-28T01:08:57;24.60;77.40
18575;DHT22;9417;16.484;102.872;2024-02-28T01:24:11;24.40;76.70
18575;DHT22;9417;16.484;102.872;2024-02-28T01:34:04;24.70;76.60
18575;DHT22;9417;16.484;102.872;2024-02-28T01:39:08;25.00;75.10
18575;DHT22;9417;16.484;102.872;2024-02-28T01:44:48;25.20;74.80
18575;DHT22;9417;16.484;102.872;2024-02-28T01:49:36;25.40;74.00
18575;DHT22;9417;16.484;102.872;2024-02-28T03:12:02;27.10;70.00
18575;DHT22;9417;16.484;102.872;2024-02-28T03:16:41;27.30;69.10
18575;DHT22;9417;16.484;102.872;2024-02-28T03:21:07;27.40;68.20
18575;DHT22;9417;16.484;102.872;2024-02-28T03:30:38;27.70;67.60
18575;DHT22;9417;16.484;102.872;2024-02-28T03:34:40;27.80;67.90
18575;DHT22;9417;16.484;102.872;2024-02-28T03:38:54;28.00;66.90
18575;DHT22;9417;16.484;102.872;2024-02-28T03:43:06;28.00;66.20
18575;DHT22;9417;16.484;102.872;2024-02-28T03:47:17;28.10;66.80
18575;DHT22;9417;16.484;102.872;2024-02-28T03:51:42;28.30;66.00
18575;DHT22;9417;16.484;102.872;2024-02-28T03:56:34;28.40;64.10
18575;DHT22;9417;16.484;102.872;2024-02-28T04:01:11;28.50;66.40
18575;DHT22;9417;16.484;102.872;2024-02-28T04:05:47;28.70;65.30
18575;DHT22;9417;16.484;102.872;2024-02-28T04:10:39;28.80;65.10
18575;DHT22;9417;16.484;102.872;2024-02-28T04:25:13;29.40;64.60
18575;DHT22;9417;16.484;102.872;2024-02-28T04:29:43;29.50;63.00
18575;DHT22;9417;16.484;102.872;2024-02-28T04:34:26;29.60;63.10
18575;DHT22;9417;16.484;102.872;2024-02-28T04:39:04;29.80;62.90
18575;DHT22;9417;16.484;102.872;2024-02-28T04:43:31;29.80;64.20
18575;DHT22;9417;16.484;102.872;2024-02-28T06:23:45;32.30;54.10
18575;DHT22;9417;16.484;102.872;2024-02-28T06:28:19;32.60;53.30
18575;DHT22;9417;16.484;102.872;2024-02-28T06:33:14;32.60;52.30
18575;DHT22;9417;16.484;102.872;2024-02-28T06:47:26;32.60;54.80
18575;DHT22;9417;16.484;102.872;2024-02-28T06:52:22;32.70;53.60
18575;DHT22;9417;16.484;102.872;2024-02-28T06:57:27;32.80;51.20
18575;DHT22;9417;16.484;102.872;2024-02-28T07:07:37;32.80;52.10
18575;DHT22;9417;16.484;102.872;2024-02-28T07:21:24;32.90;52.00
18575;DHT22;9417;16.484;102.872;2024-02-28T07:25:39;32.90;51.70
18575;DHT22;9417;16.484;102.872;2024-02-28T07:29:55;33.10;52.80
18575;DHT22;9417;16.484;102.872;2024-02-28T07:39:04;33.40;50.80
18575;DHT22;9417;16.484;102.872;2024-02-28T07:49:10;33.60;49.60
18575;DHT22;9417;16.484;102.872;2024-02-28T07:53:32;33.60;49.20
18575;DHT22;9417;16.484;102.872;2024-02-28T07:58:09;33.40;52.50
18575;DHT22;9417;16.484;102.872;2024-02-28T08:03:07;33.10;53.20
18575;DHT22;9417;16.484;102.872;2024-02-28T08:13:07;33.50;50.30
18575;DHT22;9417;16.484;102.872;2024-02-28T08:17:56;33.60;48.40
18575;DHT22;9417;16.484;102.872;2024-02-28T08:51:54;33.60;49.90
18575;DHT22;9417;16.484;102.872;2024-02-28T08:56:08;33.60;49.20
18575;DHT22;9417;16.484;102.872;2024-02-28T09:00:37;33.50;50.00
18575;DHT22;9417;16.484;102.872;2024-02-28T09:05:08;33.60;50.00
18575;DHT22;9417;16.484;102.872;2024-02-28T09:09:52;33.50;51.20
18575;DHT22;9417;16.484;102.872;2024-02-28T09:19:05;33.30;50.50
18575;DHT22;9417;16.484;102.872;2024-02-28T09:23:32;33.30;51.40
18575;DHT22;9417;16.484;102.872;2024-02-28T09:27:59;33.30;50.90
18575;DHT22;9417;16.484;102.872;2024-02-28T09:32:34;33.20;51.50
18575;DHT22;9417;16.484;102.872;2024-02-28T09:36:52;33.10;50.40
18575;DHT22;9417;16.484;102.872;2024-02-28T09:41:26;33.00;50.40
18575;DHT22;9417;16.484;102.872;2024-02-28T09:45:49;33.00;51.10
18575;DHT22;9417;16.484;102.872;2024-02-28T09:50:38;32.90;51.80
18575;DHT22;9417;16.484;102.872;2024-02-28T10:05:07;32.70;51.20
18575;DHT22;9417;16.484;102.872;2024-02-28T10:09:26;32.70;50.80
18575;DHT22;9417;16.484;102.872;2024-02-28T11:25:01;31.40;58.60
18575;DHT22;9417;16.484;102.872;2024-02-28T11:40:48;31.20;59.10
18575;DHT22;9417;16.484;102.872;2024-02-28T11:49:45;30.90;62.60
18575;DHT22;9417;16.484;102.872;2024-02-28T11:54:05;30.80;64.80
18575;DHT22;9417;16.484;102.872;2024-02-28T12:24:25;30.00;67.70
18575;DHT22;9417;16.484;102.872;2024-02-28T12:28:50;29.80;68.70
18575;DHT22;9417;16.484;102.872;2024-02-28T12:33:04;29.80;69.30
18575;DHT22;9417;16.484;102.872;2024-02-28T12:37:15;29.70;69.40
18575;DHT22;9417;16.484;102.872;2024-02-28T12:41:46;29.70;69.80
18575;DHT22;9417;16.484;102.872;2024-02-28T12:46:07;29.60;70.30
18575;DHT22;9417;16.484;102.872;2024-02-28T12:50:09;29.60;70.80
18575;DHT22;9417;16.484;102.872;2024-02-28T12:54:16;29.50;70.70
18575;DHT22;9417;16.484;102.872;2024-02-28T12:58:18;29.40;71.50
18575;DHT22;9417;16.484;102.872;2024-02-28T13:02:20;29.30;71.70
18575;DHT22;9417;16.484;102.872;2024-02-28T13:06:32;29.20;71.70
18575;DHT22;9417;16.484;102.872;2024-02-28T13:10:55;29.10;72.50
18575;DHT22;9417;16.484;102.872;2024-02-28T13:15:19;29.00;72.60
18575;DHT22;9417;16.484;102.872;2024-02-28T13:24:06;28.90;72.70
18575;DHT22;9417;16.484;102.872;2024-02-28T13:28:08;28.90;72.80
18575;DHT22;9417;16.484;102.872;2024-02-28T13:32:11;28.80;74.40
18575;DHT22;9417;16.484;102.872;2024-02-28T13:36:13;28.90;75.90
18575;DHT22;9417;16.484;102.872;2024-02-28T13:40:15;28.90;77.30
18575;DHT22;9417;16.484;102.872;2024-02-28T13:44:18;28.90;77.50
18575;DHT22;9417;16.484;102.872;2024-02-28T13:48:23;28.90;77.00
18575;DHT22;9417;16.484;102.872;2024-02-28T13:52:32;28.80;74.50
18575;DHT22;9417;16.484;102.872;2024-02-28T13:56:46;28.90;73.60
18575;DHT22;9417;16.484;102.872;2024-02-28T14:00:50;28.90;72.70
18575;DHT22;9417;16.484;102.872;2024-02-28T14:09:47;29.00;70.90
18575;DHT22;9417;16.484;102.872;2024-02-28T14:13:55;28.90;70.10
18575;DHT22;9417;16.484;102.872;2024-02-28T14:18:00;28.90;71.00
18575;DHT22;9417;16.484;102.872;2024-02-28T14:22:05;28.90;69.60
18575;DHT22;9417;16.484;102.872;2024-02-28T14:26:11;28.90;70.10
18575;DHT22;9417;16.484;102.872;2024-02-28T14:30:14;28.90;70.80
18575;DHT22;9417;16.484;102.872;2024-02-28T14:34:37;28.90;70.90
18575;DHT22;9417;16.484;102.872;2024-02-28T14:38:46;28.90;70.40
18575;DHT22;9417;16.484;102.872;2024-02-28T14:42:56;28.80;69.30
18575;DHT22;9417;16.484;102.872;2024-02-28T14:46:58;28.80;68.80
18575;DHT22;9417;16.484;102.872;2024-02-28T14:51:07;28.80;69.00
18575;DHT22;9417;16.484;102.872;2024-02-28T14:55:18;28.80;69.80
18575;DHT22;9417;16.484;102.872;2024-02-28T14:59:23;28.70;69.90
18575;DHT22;9417;16.484;102.872;2024-02-28T15:03:34;28.70;69.80
18575;DHT22;9417;16.484;102.872;2024-02-28T15:07:40;28.60;70.00
18575;DHT22;9417;16.484;102.872;2024-02-28T15:11:45;28.60;70.90
18575;DHT22;9417;16.484;102.872;2024-02-28T15:15:53;28.50;70.70
18575;DHT22;9417;16.484;102.872;2024-02-28T15:19:55;28.40;71.00
18575;DHT22;9417;16.484;102.872;2024-02-28T15:24:00;28.40;71.40
18575;DHT22;9417;16.484;102.872;2024-02-28T15:28:03;28.30;72.80
18575;DHT22;9417;16.484;102.872;2024-02-28T15:32:09;28.30;72.90
18575;DHT22;9417;16.484;102.872;2024-02-28T15:36:14;28.20;73.20
18575;DHT22;9417;16.484;102.872;2024-02-28T15:40:34;28.10;73.00
18575;DHT22;9417;16.484;102.872;2024-02-28T15:45:17;28.10;72.90
18575;DHT22;9417;16.484;102.872;2024-02-28T15:49:22;27.90;73.50
18575;DHT22;9417;16.484;102.872;2024-02-28T15:53:47;27.90;73.10
18575;DHT22;9417;16.484;102.872;2024-02-28T15:57:53;27.80;74.00
18575;DHT22;9417;16.484;102.872;2024-02-28T16:02:05;27.70;74.10
18575;DHT22;9417;16.484;102.872;2024-02-28T16:06:14;27.60;73.90
18575;DHT22;9417;16.484;102.872;2024-02-28T16:10:24;27.50;73.70
18575;DHT22;9417;16.484;102.872;2024-02-28T16:14:42;27.40;74.50
18575;DHT22;9417;16.484;102.872;2024-02-28T16:18:47;27.40;75.40
18575;DHT22;9417;16.484;102.872;2024-02-28T16:22:52;27.30;75.30
18575;DHT22;9417;16.484;102.872;2024-02-28T16:27:03;27.20;75.00
18575;DHT22;9417;16.484;102.872;2024-02-28T16:31:08;27.20;76.20
18575;DHT22;9417;16.484;102.872;2024-02-28T16:35:12;27.10;77.10
18575;DHT22;9417;16.484;102.872;2024-02-28T16:39:21;27.10;76.50
18575;DHT22;9417;16.484;102.872;2024-02-28T16:47:48;27.10;75.60
18575;DHT22;9417;16.484;102.872;2024-02-28T16:52:07;27.00;75.70
18575;DHT22;9417;16.484;102.872;2024-02-28T16:56:26;26.90;76.80
18575;DHT22;9417;16.484;102.872;2024-02-28T17:00:37;26.80;77.30
18575;DHT22;9417;16.484;102.872;2024-02-28T17:09:17;26.70;79.60
18575;DHT22;9417;16.484;102.872;2024-02-28T17:13:19;26.70;80.30
18575;DHT22;9417;16.484;102.872;2024-02-28T17:17:26;26.80;81.50
18575;DHT22;9417;16.484;102.872;2024-02-28T17:21:28;26.70;80.90
18575;DHT22;9417;16.484;102.872;2024-02-28T17:25:31;26.60;80.90
18575;DHT22;9417;16.484;102.872;2024-02-28T17:29:37;26.60;82.50
18575;DHT22;9417;16.484;102.872;2024-02-28T17:33:41;26.50;81.90
18575;DHT22;9417;16.484;102.872;2024-02-28T17:37:48;26.40;81.50
18575;DHT22;9417;16.484;102.872;2024-02-28T17:41:58;26.50;81.70
18575;DHT22;9417;16.484;102.872;2024-02-28T17:46:03;26.50;81.90
18575;DHT22;9417;16.484;102.872;2024-02-28T17:54:54;26.40;80.50
18575;DHT22;9417;16.484;102.872;2024-02-28T17:59:00;26.30;81.70
18575;DHT22;9417;16.484;102.872;2024-02-28T18:08:14;26.20;82.20
18575;DHT22;9417;16.484;102.872;2024-02-28T18:12:17;26.10;83.50
18575;DHT22;9417;16.484;102.872;2024-02-28T18:16:25;26.10;83.40
18575;DHT22;9417;16.484;102.872;2024-02-28T18:20:27;26.00;83.40
18575;DHT22;9417;16.484;102.872;2024-02-28T18:24:32;26.00;84.10
18575;DHT22;9417;16.484;102.872;2024-02-28T18:28:45;26.00;85.10
18575;DHT22;9417;16.484;102.872;2024-02-28T18:32:53;25.90;85.60
18575;DHT22;9417;16.484;102.872;2024-02-28T18:36:58;25.90;85.50
18575;DHT22;9417;16.484;102.872;2024-02-28T18:41:00;25.90;85.90
18575;DHT22;9417;16.484;102.872;2024-02-28T18:45:06;25.80;86.20
18575;DHT22;9417;16.484;102.872;2024-02-28T18:49:08;25.70;86.10
18575;DHT22;9417;16.484;102.872;2024-02-28T18:53:14;25.70;86.50
18575;DHT22;9417;16.484;102.872;2024-02-28T18:57:16;25.80;86.60
18575;DHT22;9417;16.484;102.872;2024-02-28T19:01:18;25.60;86.80
18575;DHT22;9417;16.484;102.872;2024-02-28T19:05:19;25.40;87.90
18575;DHT22;9417;16.484;102.872;2024-02-28T19:09:21;25.50;87.90
18575;DHT22;9417;16.484;102.872;2024-02-28T19:13:30;25.50;87.40
18575;DHT22;9417;16.484;102.872;2024-02-28T19:17:34;25.60;87.40
18575;DHT22;9417;16.484;102.872;2024-02-28T19:21:39;25.60;86.80
18575;DHT22;9417;16.484;102.872;2024-02-28T19:25:43;25.60;86.80
18575;DHT22;9417;16.484;102.872;2024-02-28T19:29:46;25.70;86.90
18575;DHT22;9417;16.484;102.872;2024-02-28T19:33:54;25.60;86.40
18575;DHT22;9417;16.484;102.872;2024-02-28T19:38:05;25.60;86.20
18575;DHT22;9417;16.484;102.872;2024-02-28T19:42:10;25.50;85.40
18575;DHT22;9417;16.484;102.872;2024-02-28T19:46:25;25.40;85.30
18575;DHT22;9417;16.484;102.872;2024-02-28T19:50:27;25.40;85.90
18575;DHT22;9417;16.484;102.872;2024-02-28T19:54:32;25.40;86.10
18575;DHT22;9417;16.484;102.872;2024-02-28T19:58:36;25.40;86.00
18575;DHT22;9417;16.484;102.872;2024-02-28T20:02:57;25.30;86.30
18575;DHT22;9417;16.484;102.872;2024-02-28T20:07:10;25.30;86.50
18575;DHT22;9417;16.484;102.872;2024-02-28T20:11:41;25.30;85.80
18575;DHT22;9417;16.484;102.872;2024-02-28T20:15:51;25.20;85.30
18575;DHT22;9417;16.484;102.872;2024-02-28T20:20:01;25.10;84.90
18575;DHT22;9417;16.484;102.872;2024-02-28T20:24:24;25.00;86.30
18575;DHT22;9417;16.484;102.872;2024-02-28T20:28:33;25.00;87.70
18575;DHT22;9417;16.484;102.872;2024-02-28T20:38:01;25.30;89.10
18575;DHT22;9417;16.484;102.872;2024-02-28T20:42:04;25.30;89.60
18575;DHT22;9417;16.484;102.872;2024-02-28T20:46:30;25.30;89.70
18575;DHT22;9417;16.484;102.872;2024-02-28T20:50:36;25.30;89.10
18575;DHT22;9417;16.484;102.872;2024-02-28T20:55:10;25.20;88.60
18575;DHT22;9417;16.484;102.872;2024-02-28T20:59:44;25.20;89.30
18575;DHT22;9417;16.484;102.872;2024-02-28T21:04:18;25.10;89.70
18575;DHT22;9417;16.484;102.872;2024-02-28T21:08:57;25.00;90.00
18575;DHT22;9417;16.484;102.872;2024-02-28T21:13:08;25.00;90.10
18575;DHT22;9417;16.484;102.872;2024-02-28T21:17:51;25.10;89.90
18575;DHT22;9417;16.484;102.872;2024-02-28T21:22:07;25.00;89.90
18575;DHT22;9417;16.484;102.872;2024-02-28T21:26:09;25.00;89.30
18575;DHT22;9417;16.484;102.872;2024-02-28T21:30:12;25.00;89.60
18575;DHT22;9417;16.484;102.872;2024-02-28T21:34:15;25.00;89.40
18575;DHT22;9417;16.484;102.872;2024-02-28T21:38:18;24.90;89.40
18575;DHT22;9417;16.484;102.872;2024-02-28T21:42:20;24.90;89.40
18575;DHT22;9417;16.484;102.872;2024-02-28T21:46:22;24.90;89.30
18575;DHT22;9417;16.484;102.872;2024-02-28T21:50:57;24.90;89.60
18575;DHT22;9417;16.484;102.872;2024-02-28T21:55:06;24.90;88.80
18575;DHT22;9417;16.484;102.872;2024-02-28T21:59:17;24.80;88.40
18575;DHT22;9417;16.484;102.872;2024-02-28T22:03:20;24.80;88.70
18575;DHT22;9417;16.484;102.872;2024-02-28T22:07:43;24.90;88.80
18575;DHT22;9417;16.484;102.872;2024-02-28T22:11:54;24.80;88.60
18575;DHT22;9417;16.484;102.872;2024-02-28T22:16:05;24.80;89.10
18575;DHT22;9417;16.484;102.872;2024-02-28T22:20:19;24.80;88.30
18575;DHT22;9417;16.484;102.872;2024-02-28T22:30:05;24.90;86.40
18575;DHT22;9417;16.484;102.872;2024-02-28T22:39:24;24.90;86.50
18575;DHT22;9417;16.484;102.872;2024-02-28T22:43:48;25.00;86.40
18575;DHT22;9417;16.484;102.872;2024-02-28T22:47:51;25.00;86.20
18575;DHT22;9417;16.484;102.872;2024-02-28T22:52:03;25.00;86.30
18575;DHT22;9417;16.484;102.872;2024-02-28T22:56:31;25.10;87.10
18575;DHT22;9417;16.484;102.872;2024-02-28T23:00:48;25.00;88.00
18575;DHT22;9417;16.484;102.872;2024-02-28T23:05:01;25.00;87.70
18575;DHT22;9417;16.484;102.872;2024-02-28T23:09:15;25.00;87.60
18575;DHT22;9417;16.484;102.872;2024-02-28T23:13:20;25.00;88.00
18575;DHT22;9417;16.484;102.872;2024-02-28T23:17:26;24.90;88.20
18575;DHT22;9417;16.484;102.872;2024-02-28T23:26:59;24.70;88.10
18575;DHT22;9417;16.484;102.872;2024-02-28T23:31:21;24.80;88.90
18575;DHT22;9417;16.484;102.872;2024-02-28T23:35:59;24.80;89.10
18575;DHT22;9417;16.484;102.872;2024-02-28T23:56:24;24.80;91.60
